createdAt,value
2022-09-11T00:01:49.094Z,13.26
2022-09-11T00:04:35.668Z,13.22
2022-09-11T00:07:22.270Z,13.05
2022-09-11T00:10:08.558Z,13.11
2022-09-11T00:12:54.544Z,13.17
2022-09-11T00:15:44.523Z,13.20
2022-09-11T00:18:30.718Z,13.21
2022-09-11T00:21:17.715Z,13.12
2022-09-11T00:24:04.637Z,13.27
2022-09-11T00:26:50.606Z,13.15
2022-09-11T00:29:36.801Z,13.29
2022-09-11T00:32:22.575Z,13.19
2022-09-11T00:35:09.180Z,13.15
2022-09-11T00:37:57.723Z,13.11
2022-09-11T00:40:48.213Z,13.15
2022-09-11T00:44:02.964Z,13.20
2022-09-11T00:46:54.469Z,13.16
2022-09-11T00:49:52.318Z,13.19
2022-09-11T00:52:42.501Z,13.12
2022-09-11T00:55:32.791Z,13.00
2022-09-11T00:58:22.939Z,12.59
2022-09-11T01:01:09.333Z,12.94
2022-09-11T01:03:57.183Z,12.92
2022-09-11T01:06:44.196Z,13.07
2022-09-11T01:09:31.714Z,13.07
2022-09-11T01:12:26.099Z,13.11
2022-09-11T01:15:39.403Z,12.93
2022-09-11T01:18:32.041Z,12.88
2022-09-11T01:21:21.199Z,13.03
2022-09-11T01:24:28.975Z,13.06
2022-09-11T01:27:44.542Z,13.04
2022-09-11T01:30:38.812Z,12.98
2022-09-11T01:33:28.891Z,12.97
2022-09-11T01:36:21.938Z,13.07
2022-09-11T01:39:08.537Z,12.95
2022-09-11T01:42:04.450Z,13.04
2022-09-11T01:44:55.756Z,12.88
2022-09-11T01:47:43.374Z,12.70
2022-09-11T01:50:31.813Z,12.84
2022-09-11T01:53:22.412Z,12.94
2022-09-11T01:56:13.819Z,12.89
2022-09-11T01:59:12.591Z,12.89
2022-09-11T02:02:04.585Z,12.94
2022-09-11T02:05:23.357Z,12.69
2022-09-11T02:08:14.660Z,12.72
2022-09-11T02:11:09.646Z,12.73
2022-09-11T02:14:06.582Z,12.73
2022-09-11T02:17:25.005Z,12.66
2022-09-11T02:20:15.601Z,12.76
2022-09-11T02:23:03.224Z,12.76
2022-09-11T02:25:49.514Z,12.77
2022-09-11T02:28:37.648Z,12.79
2022-09-11T02:31:24.964Z,12.62
2022-09-11T02:34:13.212Z,12.77
2022-09-11T02:37:09.317Z,12.77
2022-09-11T02:40:07.001Z,12.74
2022-09-11T02:43:10.246Z,12.75
2022-09-11T02:46:17.213Z,12.78
2022-09-11T02:49:19.977Z,12.68
2022-09-11T02:52:42.698Z,12.59
2022-09-11T02:55:39.536Z,12.71
2022-09-11T02:58:39.954Z,12.73
2022-09-11T03:01:30.537Z,12.71
2022-09-11T03:04:19.185Z,12.64
2022-09-11T03:07:06.093Z,12.74
2022-09-11T03:09:52.690Z,12.59
2022-09-11T03:12:42.257Z,12.61
2022-09-11T03:15:30.388Z,12.66
2022-09-11T03:18:16.275Z,12.45
2022-09-11T03:21:03.905Z,12.59
2022-09-11T03:23:50.089Z,12.68
2022-09-11T03:26:37.401Z,12.74
2022-09-11T03:29:23.696Z,12.72
2022-09-11T03:32:10.502Z,12.56
2022-09-11T03:34:57.102Z,12.54
2022-09-11T03:37:43.291Z,12.59
2022-09-11T03:40:30.194Z,12.66
2022-09-11T03:43:17.100Z,12.65
2022-09-11T03:46:07.195Z,12.75
2022-09-11T03:48:54.496Z,12.81
2022-09-11T03:51:40.993Z,12.71
2022-09-11T03:54:28.306Z,12.78
2022-09-11T03:57:15.015Z,12.77
2022-09-11T04:00:01.916Z,12.75
2022-09-11T04:03:07.959Z,12.88
2022-09-11T04:06:02.850Z,12.68
2022-09-11T04:08:51.906Z,12.77
2022-09-11T04:11:40.342Z,12.71
2022-09-11T04:14:40.550Z,12.80
2022-09-11T04:17:26.440Z,12.35
2022-09-11T04:20:13.453Z,12.42
2022-09-11T04:22:59.432Z,12.71
2022-09-11T04:25:45.320Z,12.68
2022-09-11T04:28:32.834Z,12.56
2022-09-11T04:31:21.746Z,12.62
2022-09-11T04:34:07.671Z,12.64
2022-09-11T04:36:56.521Z,12.57
2022-09-11T04:39:43.479Z,12.77
2022-09-11T04:42:29.621Z,12.73
2022-09-11T04:45:17.135Z,12.64
2022-09-11T04:48:03.742Z,12.66
2022-09-11T04:50:51.366Z,12.72
2022-09-11T04:53:42.330Z,12.71
2022-09-11T04:56:31.208Z,12.73
2022-09-11T04:59:22.720Z,12.79
2022-09-11T05:02:15.312Z,12.84
2022-09-11T05:05:07.583Z,12.76
2022-09-11T05:07:53.995Z,12.71
2022-09-11T05:10:40.174Z,12.81
2022-09-11T05:13:27.795Z,12.84
2022-09-11T05:16:16.402Z,12.92
2022-09-11T05:19:05.301Z,12.82
2022-09-11T05:21:53.323Z,12.83
2022-09-11T05:24:39.920Z,12.80
2022-09-11T05:27:25.816Z,12.86
2022-09-11T05:30:13.018Z,12.90
2022-09-11T05:32:59.104Z,12.62
2022-09-11T05:35:45.405Z,12.74
2022-09-11T05:38:34.551Z,12.80
2022-09-11T05:41:20.745Z,12.88
2022-09-11T05:44:07.037Z,12.83
2022-09-11T05:46:55.786Z,12.76
2022-09-11T05:49:43.100Z,12.51
2022-09-11T05:52:30.616Z,12.54
2022-09-11T05:55:17.939Z,12.50
2022-09-11T05:58:04.447Z,12.41
2022-09-11T06:00:50.788Z,12.70
2022-09-11T06:03:38.716Z,12.72
2022-09-11T06:06:26.281Z,12.77
2022-09-11T06:09:13.082Z,12.67
2022-09-11T06:12:01.218Z,12.83
2022-09-11T06:14:47.917Z,12.69
2022-09-11T06:17:34.619Z,12.71
2022-09-11T06:20:20.912Z,12.55
2022-09-11T06:23:11.603Z,12.58
2022-09-11T06:26:09.885Z,12.70
2022-09-11T06:29:01.075Z,12.64
2022-09-11T06:31:48.596Z,12.69
2022-09-11T06:34:34.899Z,12.64
2022-09-11T06:37:25.682Z,12.74
2022-09-11T06:40:13.659Z,12.79
2022-09-11T06:42:59.801Z,12.63
2022-09-11T06:45:48.693Z,12.91
2022-09-11T06:48:35.579Z,12.88
2022-09-11T06:51:24.011Z,12.75
2022-09-11T06:54:11.927Z,12.90
2022-09-11T06:56:58.116Z,12.88
2022-09-11T06:59:44.210Z,12.86
2022-09-11T07:02:30.702Z,13.07
2022-09-11T07:05:18.018Z,12.89
2022-09-11T07:08:07.277Z,13.00
2022-09-11T07:10:56.129Z,12.96
2022-09-11T07:13:42.023Z,13.09
2022-09-11T07:16:28.259Z,12.96
2022-09-11T07:19:15.008Z,13.03
2022-09-11T07:22:01.195Z,12.44
2022-09-11T07:24:47.585Z,12.99
2022-09-11T07:27:34.287Z,13.04
2022-09-11T07:30:21.610Z,12.92
2022-09-11T07:33:11.378Z,12.99
2022-09-11T07:35:57.984Z,13.05
2022-09-11T07:38:47.241Z,13.07
2022-09-11T07:41:34.061Z,13.15
2022-09-11T07:44:24.324Z,13.08
2022-09-11T07:47:11.229Z,13.34
2022-09-11T07:50:02.550Z,13.41
2022-09-11T07:52:50.261Z,13.07
2022-09-11T07:55:36.456Z,13.46
2022-09-11T07:58:23.359Z,13.56
2022-09-11T08:01:11.944Z,13.48
2022-09-11T08:04:05.765Z,13.57
2022-09-11T08:07:41.586Z,13.68
2022-09-11T08:10:28.517Z,13.60
2022-09-11T08:13:17.040Z,13.63
2022-09-11T08:16:04.697Z,13.73
2022-09-11T08:18:52.282Z,13.66
2022-09-11T08:21:38.061Z,13.56
2022-09-11T08:24:24.660Z,13.72
2022-09-11T08:27:15.063Z,13.78
2022-09-11T08:30:01.954Z,13.70
2022-09-11T08:32:47.939Z,13.76
2022-09-11T08:35:34.232Z,13.66
2022-09-11T08:38:20.214Z,13.74
2022-09-11T08:41:23.699Z,13.86
2022-09-11T08:44:09.887Z,13.89
2022-09-11T08:47:06.825Z,13.87
2022-09-11T08:50:00.081Z,13.72
2022-09-11T08:52:49.030Z,13.75
2022-09-11T08:55:39.823Z,13.91
2022-09-11T08:58:40.752Z,13.99
2022-09-11T09:01:47.469Z,13.93
2022-09-11T09:04:41.684Z,13.95
2022-09-11T09:07:39.862Z,13.78
2022-09-11T09:10:43.654Z,13.77
2022-09-11T09:13:45.331Z,13.75
2022-09-11T09:16:55.136Z,13.89
2022-09-11T09:19:46.452Z,13.95
2022-09-11T09:22:50.012Z,14.00
2022-09-11T09:25:37.524Z,14.15
2022-09-11T09:28:35.804Z,14.22
2022-09-11T09:31:23.779Z,14.47
2022-09-11T09:34:22.186Z,14.52
2022-09-11T09:37:21.472Z,14.75
2022-09-11T09:40:10.675Z,14.86
2022-09-11T09:43:12.479Z,15.01
2022-09-11T09:46:16.105Z,15.27
2022-09-11T09:49:02.366Z,15.26
2022-09-11T09:51:50.185Z,15.33
2022-09-11T09:54:36.715Z,15.37
2022-09-11T09:57:25.647Z,15.36
2022-09-11T10:00:12.233Z,15.45
2022-09-11T10:03:18.579Z,15.38
2022-09-11T10:06:07.253Z,15.49
2022-09-11T10:09:00.125Z,15.42
2022-09-11T10:11:52.571Z,15.56
2022-09-11T10:14:51.502Z,15.71
2022-09-11T10:17:38.367Z,16.02
2022-09-11T10:20:26.669Z,16.17
2022-09-11T10:23:28.380Z,15.98
2022-09-11T10:26:16.586Z,15.93
2022-09-11T10:29:07.961Z,16.03
2022-09-11T10:31:56.653Z,15.95
2022-09-11T10:34:43.748Z,16.28
2022-09-11T10:37:29.907Z,16.30
2022-09-11T10:40:24.618Z,16.50
2022-09-11T10:43:26.107Z,16.65
2022-09-11T10:46:18.849Z,16.79
2022-09-11T10:49:07.184Z,17.21
2022-09-11T10:52:27.339Z,16.91
2022-09-11T10:55:16.299Z,17.45
2022-09-11T10:58:14.449Z,17.54
2022-09-11T11:01:00.643Z,17.81
2022-09-11T11:03:47.958Z,18.09
2022-09-11T11:06:48.376Z,18.59
2022-09-11T11:09:47.155Z,18.14
2022-09-11T11:12:46.232Z,18.60
2022-09-11T11:15:53.640Z,18.39
2022-09-11T11:19:07.114Z,17.86
2022-09-11T11:22:09.597Z,18.23
2022-09-11T11:25:15.819Z,18.49
2022-09-11T11:28:14.141Z,18.43
2022-09-11T11:31:15.805Z,18.35
2022-09-11T11:34:52.529Z,18.03
2022-09-11T11:37:41.385Z,17.88
2022-09-11T11:40:32.666Z,17.48
2022-09-11T11:43:21.224Z,17.24
2022-09-11T11:46:20.277Z,17.13
2022-09-11T11:49:11.041Z,17.08
2022-09-11T11:52:20.464Z,16.81
2022-09-11T11:55:27.283Z,16.98
2022-09-11T11:58:36.410Z,16.97
2022-09-11T12:01:25.854Z,16.76
2022-09-11T12:04:34.141Z,17.02
2022-09-11T12:07:26.096Z,16.98
2022-09-11T12:10:33.445Z,16.75
2022-09-11T12:13:20.632Z,16.82
2022-09-11T12:16:11.366Z,16.89
2022-09-11T12:19:14.463Z,16.86
2022-09-11T12:22:11.766Z,16.59
2022-09-11T12:24:59.058Z,17.02
2022-09-11T12:27:45.036Z,17.33
2022-09-11T12:30:30.876Z,17.29
2022-09-11T12:33:48.401Z,17.53
2022-09-11T12:36:49.758Z,17.41
2022-09-11T12:39:40.112Z,16.86
2022-09-11T12:42:25.824Z,17.68
2022-09-11T12:45:34.660Z,17.93
2022-09-11T12:48:23.846Z,17.67
2022-09-11T12:51:20.978Z,17.54
2022-09-11T12:54:24.442Z,17.46
2022-09-11T12:57:22.363Z,18.01
2022-09-11T13:00:11.896Z,17.90
2022-09-11T13:02:58.847Z,17.51
2022-09-11T13:05:46.760Z,17.71
2022-09-11T13:08:36.570Z,17.90
2022-09-11T13:11:34.125Z,18.14
2022-09-11T13:14:49.463Z,18.08
2022-09-11T13:17:45.713Z,18.25
2022-09-11T13:20:30.906Z,18.35
2022-09-11T13:23:18.509Z,18.47
2022-09-11T13:26:06.359Z,18.05
2022-09-11T13:28:54.197Z,18.24
2022-09-11T13:31:39.256Z,18.27
2022-09-11T13:34:27.026Z,17.89
2022-09-11T13:37:14.914Z,17.55
2022-09-11T13:40:00.853Z,17.57
2022-09-11T13:42:46.489Z,17.77
2022-09-11T13:45:33.488Z,17.79
2022-09-11T13:48:22.939Z,17.26
2022-09-11T13:51:13.746Z,17.97
2022-09-11T13:54:13.015Z,17.79
2022-09-11T13:56:58.199Z,18.24
2022-09-11T13:59:44.718Z,18.44
2022-09-11T14:02:44.210Z,18.66
2022-09-11T14:05:33.197Z,18.60
2022-09-11T14:08:24.494Z,18.72
2022-09-11T14:11:21.886Z,18.69
2022-09-11T14:14:14.184Z,18.59
2022-09-11T14:17:01.408Z,18.58
2022-09-11T14:19:47.594Z,18.41
2022-09-11T14:22:32.974Z,18.37
2022-09-11T14:25:19.775Z,18.65
2022-09-11T14:28:05.204Z,18.21
2022-09-11T14:31:06.839Z,18.52
2022-09-11T14:34:18.631Z,18.44
2022-09-11T14:37:11.269Z,18.33
2022-09-11T14:39:59.117Z,18.20
2022-09-11T14:42:45.344Z,18.35
2022-09-11T14:45:31.365Z,18.53
2022-09-11T14:48:16.368Z,18.39
2022-09-11T14:51:04.137Z,18.61
2022-09-11T14:53:49.213Z,18.59
2022-09-11T14:56:34.639Z,18.48
2022-09-11T14:59:19.999Z,17.88
2022-09-11T15:02:11.511Z,18.34
2022-09-11T15:04:59.040Z,18.23
2022-09-11T15:07:47.486Z,18.38
2022-09-11T15:10:33.139Z,18.32
2022-09-11T15:13:18.486Z,18.29
2022-09-11T15:15:45.745Z,18.35
2022-09-11T15:18:12.420Z,18.13
2022-09-11T15:20:39.633Z,18.25
2022-09-11T15:23:06.560Z,17.69
2022-09-11T15:25:34.374Z,18.27
2022-09-11T15:28:02.439Z,18.34
2022-09-11T15:30:30.233Z,18.19
2022-09-11T15:32:56.826Z,18.38
2022-09-11T15:35:23.737Z,18.30
2022-09-11T15:37:50.838Z,18.17
2022-09-11T15:40:17.930Z,18.26
2022-09-11T15:42:44.783Z,18.33
2022-09-11T15:45:13.473Z,18.26
2022-09-11T15:47:40.630Z,17.52
2022-09-11T15:50:09.072Z,17.99
2022-09-11T15:52:36.691Z,17.25
2022-09-11T15:55:03.699Z,17.91
2022-09-11T15:57:31.290Z,17.98
2022-09-11T15:59:58.207Z,17.88
2022-09-11T16:02:26.202Z,17.63
2022-09-11T16:04:54.756Z,17.60
2022-09-11T16:07:21.837Z,17.06
2022-09-11T16:09:48.824Z,17.91
2022-09-11T16:12:16.284Z,17.56
2022-09-11T16:14:43.611Z,17.75
2022-09-11T16:17:10.596Z,17.88
2022-09-11T16:19:38.734Z,17.58
2022-09-11T16:22:06.176Z,17.21
2022-09-11T16:24:37.880Z,17.90
2022-09-11T16:27:09.583Z,17.62
2022-09-11T16:30:09.100Z,17.46
2022-09-11T16:32:29.434Z,17.18
2022-09-11T16:34:57.609Z,16.67
2022-09-11T16:37:24.513Z,17.21
2022-09-11T16:39:51.375Z,17.40
2022-09-11T16:42:21.116Z,16.70
2022-09-11T16:44:48.873Z,17.29
2022-09-11T16:47:16.687Z,17.27
2022-09-11T16:50:05.979Z,17.21
2022-09-11T16:52:32.114Z,17.22
2022-09-11T16:54:59.353Z,17.13
2022-09-11T16:57:29.500Z,16.73
2022-09-11T16:59:56.254Z,16.67
2022-09-11T17:02:25.928Z,16.17
2022-09-11T17:04:52.818Z,16.70
2022-09-11T17:07:20.757Z,15.92
2022-09-11T17:09:47.460Z,16.14
2022-09-11T17:12:17.980Z,15.82
2022-09-11T17:14:44.688Z,15.81
2022-09-11T17:17:12.463Z,16.16
2022-09-11T17:19:40.059Z,16.19
2022-09-11T17:22:08.443Z,15.24
2022-09-11T17:24:35.282Z,15.50
2022-09-11T17:27:02.376Z,15.64
2022-09-11T17:29:30.087Z,15.64
2022-09-11T17:32:16.697Z,15.55
2022-09-11T17:34:44.641Z,15.40
2022-09-11T17:37:11.322Z,14.57
2022-09-11T17:39:38.828Z,15.20
2022-09-11T17:42:11.010Z,14.29
2022-09-11T17:44:41.562Z,14.16
2022-09-11T17:47:09.303Z,14.95
2022-09-11T17:49:36.373Z,14.00
2022-09-11T17:52:03.531Z,14.18
2022-09-11T17:54:31.280Z,14.83
2022-09-11T17:56:58.554Z,14.33
2022-09-11T17:59:26.634Z,14.10
2022-09-11T18:01:53.834Z,14.41
2022-09-11T18:04:22.879Z,14.11
2022-09-11T18:06:50.391Z,14.23
2022-09-11T18:09:19.521Z,13.81
2022-09-11T18:11:48.042Z,14.02
2022-09-11T18:14:15.768Z,13.93
2022-09-11T18:16:45.132Z,13.78
2022-09-11T18:19:12.302Z,12.96
2022-09-11T18:21:39.172Z,13.54
2022-09-11T18:24:09.772Z,13.67
2022-09-11T18:26:40.024Z,13.54
2022-09-11T18:29:11.705Z,13.37
2022-09-11T18:31:41.209Z,13.38
2022-09-11T18:34:10.994Z,13.28
2022-09-11T18:36:39.504Z,13.10
2022-09-11T18:39:06.986Z,13.02
2022-09-11T18:41:36.996Z,12.93
2022-09-11T18:44:08.436Z,13.16
2022-09-11T18:46:37.384Z,12.66
2022-09-11T18:49:04.765Z,12.57
2022-09-11T18:51:31.587Z,12.94
2022-09-11T18:54:00.115Z,13.02
2022-09-11T18:56:28.523Z,13.04
2022-09-11T18:58:56.418Z,12.65
2022-09-11T19:01:51.431Z,12.37
2022-09-11T19:04:20.221Z,12.57
2022-09-11T19:06:47.647Z,12.62
2022-09-11T19:09:14.821Z,12.61
2022-09-11T19:11:42.728Z,12.70
2022-09-11T19:14:11.922Z,12.12
2022-09-11T19:16:39.989Z,11.65
2022-09-11T19:19:08.397Z,12.37
2022-09-11T19:21:38.316Z,11.99
2022-09-11T19:24:06.741Z,12.31
2022-09-11T19:26:39.290Z,12.36
2022-09-11T19:29:08.754Z,12.05
2022-09-11T19:31:36.161Z,12.13
2022-09-11T19:34:03.051Z,11.88
2022-09-11T19:36:31.204Z,11.44
2022-09-11T19:39:01.325Z,12.29
2022-09-11T19:41:30.175Z,11.45
2022-09-11T19:44:02.209Z,11.68
2022-09-11T19:46:30.383Z,12.08
2022-09-11T19:49:00.458Z,11.14
2022-09-11T19:51:29.888Z,11.81
2022-09-11T19:54:00.415Z,11.97
2022-09-11T19:56:27.714Z,11.72
2022-09-11T19:58:55.043Z,11.91
2022-09-11T20:01:28.366Z,11.99
2022-09-11T20:03:57.627Z,11.81
2022-09-11T20:06:26.992Z,11.59
2022-09-11T20:09:13.465Z,11.48
2022-09-11T20:11:41.441Z,11.18
2022-09-11T20:14:08.116Z,11.73
2022-09-11T20:16:35.662Z,11.45
2022-09-11T20:19:06.463Z,11.61
2022-09-11T20:21:39.078Z,11.41
2022-09-11T20:24:07.359Z,11.11
2022-09-11T20:26:35.677Z,10.39
2022-09-11T20:29:07.050Z,11.22
2022-09-11T20:31:42.358Z,10.70
2022-09-11T20:34:13.362Z,11.02
2022-09-11T20:36:40.210Z,10.58
2022-09-11T20:39:07.353Z,10.51
2022-09-11T20:41:35.983Z,10.86
2022-09-11T20:44:04.528Z,10.95
2022-09-11T20:46:32.649Z,10.99
2022-09-11T20:49:00.908Z,10.64
2022-09-11T20:51:28.744Z,11.05
2022-09-11T20:53:56.078Z,10.37
2022-09-11T20:56:23.869Z,10.97
2022-09-11T20:58:51.428Z,10.43
2022-09-11T21:01:22.208Z,10.36
2022-09-11T21:03:57.355Z,10.86
2022-09-11T21:06:27.346Z,10.78
2022-09-11T21:08:59.040Z,10.20
2022-09-11T21:11:27.017Z,10.41
2022-09-11T21:13:54.051Z,10.55
2022-09-11T21:16:21.216Z,10.52
2022-09-11T21:18:50.119Z,10.60
2022-09-11T21:21:17.337Z,10.20
2022-09-11T21:23:45.319Z,9.82
2022-09-11T21:26:14.318Z,10.56
2022-09-11T21:28:41.007Z,10.06
2022-09-11T21:31:08.433Z,10.23
2022-09-11T21:33:36.804Z,10.30
2022-09-11T21:36:04.728Z,9.60
2022-09-11T21:38:31.574Z,9.20
2022-09-11T21:41:00.089Z,9.99
2022-09-11T21:43:27.710Z,10.21
2022-09-11T21:45:54.477Z,9.77
2022-09-11T21:48:23.776Z,9.22
2022-09-11T21:50:50.991Z,9.84
2022-09-11T21:53:18.937Z,10.33
2022-09-11T21:55:51.109Z,9.72
2022-09-11T21:58:20.167Z,9.43
2022-09-11T22:00:48.406Z,10.19
2022-09-11T22:03:19.355Z,10.35
2022-09-11T22:05:49.142Z,10.27
2022-09-11T22:08:18.346Z,10.03
2022-09-11T22:10:48.288Z,9.97
2022-09-11T22:13:15.738Z,9.70
2022-09-11T22:15:48.691Z,9.85
2022-09-11T22:18:17.468Z,9.24
2022-09-11T22:20:45.485Z,9.46
2022-09-11T22:23:20.869Z,8.92
2022-09-11T22:25:47.724Z,9.42
2022-09-11T22:28:16.041Z,9.17
2022-09-11T22:30:44.056Z,9.21
2022-09-11T22:33:11.116Z,8.86
2022-09-11T22:35:38.069Z,9.87
2022-09-11T22:38:05.420Z,9.82
2022-09-11T22:40:33.497Z,9.41
2022-09-11T22:43:01.529Z,9.57
2022-09-11T22:45:29.495Z,9.03
2022-09-11T22:47:56.301Z,9.01
2022-09-11T22:50:23.012Z,9.43
2022-09-11T22:52:49.738Z,8.93
2022-09-11T22:55:17.753Z,8.56
2022-09-11T22:57:44.402Z,8.76
2022-09-11T23:00:12.832Z,9.05
2022-09-11T23:02:43.854Z,9.23
2022-09-11T23:05:30.578Z,8.35
2022-09-11T23:07:57.362Z,9.28
2022-09-11T23:10:25.675Z,8.94
2022-09-11T23:12:53.560Z,8.80
2022-09-11T23:15:21.270Z,9.36
2022-09-11T23:17:48.088Z,8.79
2022-09-11T23:20:15.056Z,8.33
2022-09-11T23:22:42.439Z,8.67
2022-09-11T23:25:11.081Z,9.25
2022-09-11T23:27:37.996Z,8.49
2022-09-11T23:30:05.292Z,9.43
2022-09-11T23:32:33.606Z,9.22
2022-09-11T23:35:00.347Z,8.58
2022-09-11T23:37:28.804Z,9.16
2022-09-11T23:39:55.526Z,9.22
2022-09-11T23:42:23.589Z,9.24
2022-09-11T23:44:50.374Z,9.08
2022-09-11T23:47:17.741Z,8.94
2022-09-11T23:49:44.404Z,8.46
2022-09-11T23:52:11.150Z,9.15
2022-09-11T23:54:39.324Z,8.13
2022-09-11T23:57:06.937Z,8.68
2022-09-11T23:59:36.173Z,9.19
